セントジョンズ の空港の天気 - METARとTAF

セント・ジョンズ国際空港 ( CYYT / YYT ) - カナダ ニューファンドランド・ラブラドール州セントジョンズ
飛行場実況気象(Metar)
観測時間11/27 05:54 NST (11/27 09:24 UTC)
風向・風速東北東 12m/s 瞬間風速20m/s
視程2000m
天気現象弱い雨 もや
全天を覆う雲 雲底高度 60m
気温4℃
湿度93%
気圧992.6hPa
METARCYYT 270924Z 06023G39KT 1 1/4SM -RA BR OVC002 04/03 A2929 RMK FG2SF6 SLP926
過去の天気等 Google飛行場航空写真 Wunderground天気予報

過去48時間のMETAR

飛行場予報(TAF)
発表時間: 11/27 02:10 NST (11/27 05:40 UTC)
予報対象時間: 27日2時 NST ~ 28日2時 NST
風向・風速東 13m/s 瞬間風速 18m/s
視程4830m
天気現象弱い雨 もや
全天を覆う雲 雲底高度 120m
27日2時 NST ~ 27日10時 NST に一時的に
視程1610m
天気現象しゅう雨 もや
全天を覆う雲 雲底高度 90m
27日10時 NST から
風向・風速東北東 10m/s 瞬間風速 15m/s
視程1210m
天気現象弱い霧雨 もや
全天を覆う雲 鉛直視程 60m
27日10時 NST ~ 27日16時 NST に一時的に
視程3220m
天気現象もや
全天を覆う雲 雲底高度 120m
27日12時 NST ~ 27日14時 NST に徐々に
風向・風速北北東 8m/s 瞬間風速 13m/s
27日16時 NST から
風向・風速北北西 6m/s 瞬間風速 11m/s
視程1210m
天気現象弱い霧雨 もや
全天を覆う雲 雲底高度 90m
27日18時 NST ~ 27日20時 NST に徐々に
風向・風速北西 5m/s 瞬間風速 10m/s
28日0時 NST から
風向・風速西北西 5m/s 瞬間風速 10m/s
視程10km以上
全天を覆う雲 雲底高度 370m
TAF CYYT 270540Z 2706/2806 10025G35KT 3SM -RA BR OVC004
TEMPO 2706/2714 1SM SHRA BR OVC003
FM271400 06020G30KT 3/4SM -DZ BR VV002
TEMPO 2714/2720 2SM BR OVC004
BECMG 2716/2718 02015G25KT
FM272000 34012G22KT 3/4SM -DZ BR OVC003
BECMG 2722/2724 31010G20KT
FM280400 29010G20KT P6SM OVC012 RMK NXT FCST BY 271200Z